createdAt,value
2022-09-13T00:00:30.985Z,98959.10
2022-09-13T00:01:22.825Z,98961.21
2022-09-13T00:01:54.631Z,98958.85
2022-09-13T00:02:26.565Z,98961.33
2022-09-13T00:02:58.915Z,98961.85
2022-09-13T00:03:30.963Z,98962.18
2022-09-13T00:04:03.904Z,98959.70
2022-09-13T00:04:35.533Z,98962.54
2022-09-13T00:05:07.536Z,98960.72
2022-09-13T00:05:39.415Z,98960.11
2022-09-13T00:06:17.112Z,98962.83
2022-09-13T00:06:48.729Z,98960.30
2022-09-13T00:07:20.333Z,98960.07
2022-09-13T00:07:52.644Z,98964.86
2022-09-13T00:08:24.342Z,98962.30
2022-09-13T00:08:56.430Z,98959.43
2022-09-13T00:09:28.152Z,98963.23
2022-09-13T00:10:00.045Z,98965.73
2022-09-13T00:10:34.617Z,98959.89
2022-09-13T00:11:06.919Z,98957.88
2022-09-13T00:11:39.195Z,98961.52
2022-09-13T00:12:10.907Z,98957.06
2022-09-13T00:12:42.869Z,98957.73
2022-09-13T00:13:16.027Z,98957.77
2022-09-13T00:13:47.934Z,98955.86
2022-09-13T00:14:19.610Z,98958.70
2022-09-13T00:14:51.376Z,98960.52
2022-09-13T00:15:23.241Z,98962.62
2022-09-13T00:15:54.940Z,98959.67
2022-09-13T00:16:29.350Z,98963.76
2022-09-13T00:17:01.507Z,98964.58
2022-09-13T00:17:33.401Z,98962.55
2022-09-13T00:18:05.159Z,98962.23
2022-09-13T00:18:36.924Z,98963.88
2022-09-13T00:19:08.749Z,98962.41
2022-09-13T00:19:40.598Z,98961.16
2022-09-13T00:20:12.590Z,98961.44
2022-09-13T00:20:45.154Z,98959.95
2022-09-13T00:21:19.007Z,98960.77
2022-09-13T00:21:50.749Z,98958.85
2022-09-13T00:22:22.464Z,98957.20
2022-09-13T00:22:54.291Z,98958.29
2022-09-13T00:23:26.023Z,98955.53
2022-09-13T00:23:57.808Z,98956.21
2022-09-13T00:24:29.530Z,98951.35
2022-09-13T00:25:03.564Z,98952.45
2022-09-13T00:25:35.590Z,98950.94
2022-09-13T00:26:11.750Z,98950.13
2022-09-13T00:26:43.536Z,98950.98
2022-09-13T00:27:15.296Z,98948.67
2022-09-13T00:27:47.448Z,98948.96
2022-09-13T00:28:19.175Z,98950.98
2022-09-13T00:28:56.126Z,98947.98
2022-09-13T00:29:27.834Z,98950.04
2022-09-13T00:30:00.286Z,98948.75
2022-09-13T00:30:33.217Z,98947.86
2022-09-13T00:31:07.882Z,98948.59
2022-09-13T00:31:39.973Z,98950.01
2022-09-13T00:32:12.861Z,98949.64
2022-09-13T00:32:44.591Z,98948.39
2022-09-13T00:33:16.402Z,98950.25
2022-09-13T00:33:48.144Z,98951.75
2022-09-13T00:34:19.928Z,98951.23
2022-09-13T00:34:51.714Z,98948.70
2022-09-13T00:35:24.023Z,98949.32
2022-09-13T00:35:56.230Z,98949.39
2022-09-13T00:36:28.520Z,98950.02
2022-09-13T00:37:00.495Z,98952.73
2022-09-13T00:37:33.770Z,98952.13
2022-09-13T00:38:06.232Z,98947.14
2022-09-13T00:38:39.591Z,98950.91
2022-09-13T00:39:12.209Z,98951.24
2022-09-13T00:39:47.948Z,98950.38
2022-09-13T00:40:22.093Z,98954.70
2022-09-13T00:40:53.863Z,98950.05
2022-09-13T00:41:25.784Z,98951.22
2022-09-13T00:41:57.532Z,98949.23
2022-09-13T00:42:34.255Z,98950.54
2022-09-13T00:43:13.761Z,98953.02
2022-09-13T00:43:56.402Z,98953.08
2022-09-13T00:44:53.396Z,98950.21
2022-09-13T00:45:25.175Z,98954.20
2022-09-13T00:45:57.152Z,98948.76
2022-09-13T00:46:36.603Z,98947.61
2022-09-13T00:47:08.328Z,98948.83
2022-09-13T00:47:54.722Z,98950.71
2022-09-13T00:48:26.472Z,98951.12
2022-09-13T00:49:12.096Z,98950.95
2022-09-13T00:49:47.063Z,98950.27
2022-09-13T00:50:34.749Z,98949.29
2022-09-13T00:51:09.111Z,98949.09
2022-09-13T00:51:44.862Z,98949.52
2022-09-13T00:52:21.282Z,98948.66
2022-09-13T00:53:00.205Z,98946.17
2022-09-13T00:53:35.433Z,98949.15
2022-09-13T00:54:07.535Z,98947.80
2022-09-13T00:54:44.850Z,98951.98
2022-09-13T00:55:40.888Z,98951.09
2022-09-13T00:56:22.196Z,98948.33
2022-09-13T00:56:59.151Z,98946.58
2022-09-13T00:57:34.841Z,98949.13
2022-09-13T00:58:12.995Z,98951.66
2022-09-13T00:58:58.185Z,98951.45
2022-09-13T00:59:34.601Z,98954.38
2022-09-13T01:00:13.422Z,98953.39
2022-09-13T01:00:45.985Z,98954.73
2022-09-13T01:01:20.596Z,98959.08
2022-09-13T01:01:55.725Z,98959.85
2022-09-13T01:02:28.590Z,98962.08
2022-09-13T01:03:05.499Z,98960.74
2022-09-13T01:03:39.573Z,98960.30
2022-09-13T01:04:12.882Z,98958.79
2022-09-13T01:04:45.127Z,98957.88
2022-09-13T01:05:22.340Z,98960.12
2022-09-13T01:06:01.696Z,98960.98
2022-09-13T01:06:36.923Z,98957.53
2022-09-13T01:07:13.499Z,98956.23
2022-09-13T01:07:45.934Z,98962.13
2022-09-13T01:08:24.613Z,98959.03
2022-09-13T01:09:03.453Z,98958.71
2022-09-13T01:09:38.729Z,98960.89
2022-09-13T01:10:10.749Z,98962.15
2022-09-13T01:10:44.615Z,98962.06
2022-09-13T01:11:29.072Z,98962.23
2022-09-13T01:12:09.776Z,98960.85
2022-09-13T01:12:46.181Z,98962.77
2022-09-13T01:13:21.258Z,98962.11
2022-09-13T01:13:54.594Z,98963.09
2022-09-13T01:14:27.586Z,98961.98
2022-09-13T01:15:02.266Z,98959.85
2022-09-13T01:15:34.041Z,98964.11
2022-09-13T01:16:06.405Z,98965.80
2022-09-13T01:16:38.339Z,98963.47
2022-09-13T01:17:10.371Z,98964.15
2022-09-13T01:17:43.723Z,98963.90
2022-09-13T01:18:16.027Z,98964.59
2022-09-13T01:18:47.795Z,98967.10
2022-09-13T01:19:19.714Z,98965.89
2022-09-13T01:19:51.555Z,98968.16
2022-09-13T01:20:44.160Z,98968.69
2022-09-13T01:21:18.670Z,98971.35
2022-09-13T01:22:02.535Z,98969.30
2022-09-13T01:22:34.158Z,98969.52
2022-09-13T01:23:24.867Z,98972.90
2022-09-13T01:24:32.392Z,98975.89
2022-09-13T01:25:16.555Z,98973.59
2022-09-13T01:26:40.327Z,98973.83
2022-09-13T01:27:30.897Z,98976.80
2022-09-13T01:28:11.289Z,98977.85
2022-09-13T01:29:06.989Z,98976.79
2022-09-13T01:30:17.784Z,98976.32
2022-09-13T01:30:52.537Z,98974.72
2022-09-13T01:31:52.389Z,98971.89
2022-09-13T01:32:42.293Z,98972.38
2022-09-13T01:33:51.164Z,98974.02
2022-09-13T01:34:41.656Z,98973.38
2022-09-13T01:35:27.316Z,98975.30
2022-09-13T01:36:32.283Z,98976.59
2022-09-13T01:37:18.960Z,98978.58
2022-09-13T01:38:29.614Z,98977.15
2022-09-13T01:39:22.072Z,98978.48
2022-09-13T01:40:23.314Z,98973.19
2022-09-13T01:41:08.931Z,98971.49
2022-09-13T01:42:07.606Z,98967.55
2022-09-13T01:42:46.825Z,98974.57
2022-09-13T01:43:47.864Z,98968.36
2022-09-13T01:44:20.029Z,98972.16
2022-09-13T01:45:05.075Z,98972.04
2022-09-13T01:45:58.801Z,98973.42
2022-09-13T01:46:45.033Z,98967.95
2022-09-13T01:47:32.442Z,98964.40
2022-09-13T01:48:16.426Z,98963.02
2022-09-13T01:49:00.095Z,98963.88
2022-09-13T01:49:51.005Z,98959.05
2022-09-13T01:50:28.757Z,98953.77
2022-09-13T01:51:08.615Z,98952.39
2022-09-13T01:51:49.717Z,98951.41
2022-09-13T01:52:26.066Z,98951.27
2022-09-13T01:53:03.549Z,98952.46
2022-09-13T01:54:01.310Z,98952.23
2022-09-13T01:54:53.652Z,98950.65
2022-09-13T01:55:41.271Z,98953.65
2022-09-13T01:56:51.180Z,98948.95
2022-09-13T01:57:47.575Z,98947.42
2022-09-13T01:58:29.341Z,98946.44
2022-09-13T01:59:08.942Z,98942.67
2022-09-13T01:59:53.953Z,98939.08
2022-09-13T02:00:28.683Z,98939.35
2022-09-13T02:01:10.705Z,98936.85
2022-09-13T02:01:49.948Z,98939.64
2022-09-13T02:02:52.498Z,98937.13
2022-09-13T02:03:36.793Z,98937.70
2022-09-13T02:04:22.412Z,98937.98
2022-09-13T02:05:00.523Z,98937.09
2022-09-13T02:05:40.202Z,98939.64
2022-09-13T02:06:17.934Z,98941.41
2022-09-13T02:07:08.591Z,98940.64
2022-09-13T02:07:43.884Z,98942.70
2022-09-13T02:08:35.446Z,98945.05
2022-09-13T02:09:15.897Z,98942.05
2022-09-13T02:09:57.809Z,98940.09
2022-09-13T02:10:35.863Z,98943.98
2022-09-13T02:11:13.336Z,98944.27
2022-09-13T02:11:50.593Z,98946.20
2022-09-13T02:12:25.229Z,98943.54
2022-09-13T02:12:58.940Z,98945.45
2022-09-13T02:13:37.425Z,98946.71
2022-09-13T02:14:14.945Z,98944.66
2022-09-13T02:14:55.022Z,98943.20
2022-09-13T02:15:37.270Z,98942.27
2022-09-13T02:16:16.257Z,98943.69
2022-09-13T02:17:10.902Z,98943.65
2022-09-13T02:17:49.213Z,98944.67
2022-09-13T02:18:33.174Z,98945.80
2022-09-13T02:19:21.516Z,98943.89
2022-09-13T02:20:01.148Z,98946.36
2022-09-13T02:20:40.393Z,98944.98
2022-09-13T02:21:37.985Z,98946.02
2022-09-13T02:22:15.485Z,98945.39
2022-09-13T02:22:55.245Z,98944.21
2022-09-13T02:23:37.429Z,98947.70
2022-09-13T02:24:19.483Z,98948.19
2022-09-13T02:25:04.538Z,98947.34
2022-09-13T02:25:39.430Z,98947.83
2022-09-13T02:26:15.116Z,98946.32
2022-09-13T02:26:52.417Z,98947.95
2022-09-13T02:27:28.356Z,98948.80
2022-09-13T02:28:06.939Z,98948.19
2022-09-13T02:28:45.330Z,98947.94
2022-09-13T02:29:20.698Z,98947.13
2022-09-13T02:29:57.910Z,98943.35
2022-09-13T02:30:33.826Z,98944.73
2022-09-13T02:31:08.997Z,98942.42
2022-09-13T02:31:58.549Z,98941.53
2022-09-13T02:32:35.442Z,98939.15
2022-09-13T02:33:23.615Z,98940.27
2022-09-13T02:33:59.944Z,98940.25
2022-09-13T02:34:41.666Z,98941.27
2022-09-13T02:35:29.993Z,98940.70
2022-09-13T02:36:09.232Z,98943.12
2022-09-13T02:36:45.028Z,98941.02
2022-09-13T02:37:16.929Z,98941.58
2022-09-13T02:37:55.832Z,98940.80
2022-09-13T02:38:56.377Z,98943.12
2022-09-13T02:39:31.117Z,98938.46
2022-09-13T02:40:09.587Z,98937.61
2022-09-13T02:40:59.267Z,98936.20
2022-09-13T02:41:46.231Z,98935.21
2022-09-13T02:42:22.395Z,98934.93
2022-09-13T02:43:12.713Z,98934.49
2022-09-13T02:43:53.565Z,98935.31
2022-09-13T02:44:43.338Z,98939.20
2022-09-13T02:45:15.443Z,98937.25
2022-09-13T02:46:05.063Z,98937.08
2022-09-13T02:47:01.782Z,98939.28
2022-09-13T02:47:51.564Z,98937.30
2022-09-13T02:48:55.019Z,98938.27
2022-09-13T02:49:34.013Z,98938.50
2022-09-13T02:50:35.274Z,98937.65
2022-09-13T02:51:30.447Z,98940.11
2022-09-13T02:52:23.957Z,98937.80
2022-09-13T02:53:26.642Z,98936.52
2022-09-13T02:54:20.071Z,98934.86
2022-09-13T02:55:08.734Z,98934.16
2022-09-13T02:55:52.547Z,98936.86
2022-09-13T02:56:30.142Z,98934.60
2022-09-13T02:57:30.839Z,98931.97
2022-09-13T02:58:12.915Z,98933.96
2022-09-13T02:58:57.984Z,98927.98
2022-09-13T02:59:29.800Z,98928.21
2022-09-13T03:00:01.930Z,98925.73
2022-09-13T03:00:33.900Z,98923.36
2022-09-13T03:01:05.644Z,98923.48
2022-09-13T03:01:40.182Z,98920.66
2022-09-13T03:02:19.244Z,98925.00
2022-09-13T03:02:53.286Z,98923.86
2022-09-13T03:03:25.046Z,98923.17
2022-09-13T03:03:56.811Z,98921.60
2022-09-13T03:04:28.919Z,98921.69
2022-09-13T03:05:02.192Z,98921.48
2022-09-13T03:05:34.696Z,98919.86
2022-09-13T03:06:06.951Z,98919.66
2022-09-13T03:06:41.685Z,98919.48
2022-09-13T03:07:14.409Z,98920.24
2022-09-13T03:07:47.472Z,98919.75
2022-09-13T03:08:20.773Z,98913.11
2022-09-13T03:08:54.886Z,98914.48
2022-09-13T03:09:27.404Z,98916.10
2022-09-13T03:10:05.484Z,98912.59
2022-09-13T03:10:58.741Z,98916.10
2022-09-13T03:11:33.006Z,98913.19
2022-09-13T03:12:22.188Z,98914.52
2022-09-13T03:13:03.210Z,98910.48
2022-09-13T03:14:05.946Z,98914.98
2022-09-13T03:14:44.608Z,98918.05
2022-09-13T03:15:33.243Z,98917.92
2022-09-13T03:16:05.131Z,98916.66
2022-09-13T03:16:49.246Z,98915.86
2022-09-13T03:17:21.112Z,98915.62
2022-09-13T03:18:01.747Z,98914.40
2022-09-13T03:19:06.438Z,98912.52
2022-09-13T03:20:00.216Z,98910.84
2022-09-13T03:21:10.554Z,98911.48
2022-09-13T03:21:58.654Z,98909.27
2022-09-13T03:22:58.596Z,98908.65
2022-09-13T03:23:51.616Z,98909.09
2022-09-13T03:24:32.281Z,98907.13
2022-09-13T03:25:22.505Z,98909.74
2022-09-13T03:26:04.095Z,98911.02
2022-09-13T03:26:47.838Z,98911.68
2022-09-13T03:28:00.808Z,98908.98
2022-09-13T03:28:35.396Z,98913.63
2022-09-13T03:29:31.243Z,98913.43
2022-09-13T03:30:08.348Z,98913.95
2022-09-13T03:30:48.562Z,98913.55
2022-09-13T03:31:29.288Z,98916.02
2022-09-13T03:32:21.991Z,98914.15
2022-09-13T03:33:20.504Z,98919.94
2022-09-13T03:33:59.144Z,98922.69
2022-09-13T03:34:43.903Z,98921.47
2022-09-13T03:35:50.155Z,98922.27
2022-09-13T03:36:26.708Z,98916.05
2022-09-13T03:37:08.236Z,98921.44
2022-09-13T03:38:16.317Z,98915.74
2022-09-13T03:39:03.082Z,98917.27
2022-09-13T03:39:43.996Z,98917.28
2022-09-13T03:40:40.423Z,98916.89
2022-09-13T03:41:24.410Z,98917.06
2022-09-13T03:42:01.109Z,98920.75
2022-09-13T03:42:50.583Z,98924.91
2022-09-13T03:43:46.608Z,98919.94
2022-09-13T03:44:21.513Z,98916.56
2022-09-13T03:44:56.816Z,98920.45
2022-09-13T03:45:33.862Z,98919.27
2022-09-13T03:46:20.835Z,98919.29
2022-09-13T03:46:57.230Z,98919.50
2022-09-13T03:47:32.503Z,98914.67
2022-09-13T03:48:06.103Z,98913.66
2022-09-13T03:48:40.676Z,98913.42
2022-09-13T03:49:15.259Z,98913.67
2022-09-13T03:49:48.668Z,98914.52
2022-09-13T03:50:23.725Z,98912.64
2022-09-13T03:50:55.875Z,98912.98
2022-09-13T03:51:27.829Z,98912.38
2022-09-13T03:52:00.425Z,98911.40
2022-09-13T03:52:33.099Z,98913.02
2022-09-13T03:53:08.719Z,98909.98
2022-09-13T03:53:48.111Z,98911.30
2022-09-13T03:54:24.078Z,98912.89
2022-09-13T03:54:57.314Z,98912.57
2022-09-13T03:55:31.404Z,98913.95
2022-09-13T03:56:13.362Z,98916.98
2022-09-13T03:57:08.336Z,98916.63
2022-09-13T03:57:40.982Z,98915.48
2022-09-13T03:58:15.232Z,98916.25
2022-09-13T03:58:48.011Z,98915.73
2022-09-13T03:59:20.176Z,98914.41
2022-09-13T03:59:57.322Z,98914.80
2022-09-13T04:00:29.127Z,98916.17
2022-09-13T04:01:01.085Z,98918.54
2022-09-13T04:01:32.925Z,98919.23
2022-09-13T04:02:08.451Z,98919.31
2022-09-13T04:02:40.797Z,98919.66
2022-09-13T04:03:14.342Z,98918.52
2022-09-13T04:03:46.571Z,98918.08
2022-09-13T04:04:18.381Z,98918.58
2022-09-13T04:04:50.875Z,98919.02
2022-09-13T04:05:22.635Z,98915.54
2022-09-13T04:05:54.394Z,98918.70
2022-09-13T04:06:26.180Z,98918.09
2022-09-13T04:06:58.437Z,98921.13
2022-09-13T04:07:30.093Z,98918.73
2022-09-13T04:08:05.251Z,98922.13
2022-09-13T04:08:37.084Z,98921.65
2022-09-13T04:09:08.818Z,98920.52
2022-09-13T04:09:41.186Z,98922.43
2022-09-13T04:10:14.071Z,98918.48
2022-09-13T04:10:51.730Z,98923.39
2022-09-13T04:11:23.711Z,98919.63
2022-09-13T04:11:55.549Z,98922.14
2022-09-13T04:12:31.428Z,98921.66
2022-09-13T04:13:03.386Z,98921.85
2022-09-13T04:13:36.322Z,98919.09
2022-09-13T04:14:08.149Z,98917.95
2022-09-13T04:14:41.118Z,98915.69
2022-09-13T04:15:12.919Z,98916.50
2022-09-13T04:15:44.503Z,98916.02
2022-09-13T04:16:16.286Z,98912.85
2022-09-13T04:16:48.111Z,98911.20
2022-09-13T04:17:20.345Z,98910.39
2022-09-13T04:17:52.766Z,98914.91
2022-09-13T04:18:24.531Z,98913.54
2022-09-13T04:18:56.453Z,98915.89
2022-09-13T04:19:28.320Z,98914.56
2022-09-13T04:20:00.289Z,98914.05
2022-09-13T04:20:32.247Z,98915.06
2022-09-13T04:21:04.336Z,98914.44
2022-09-13T04:21:36.226Z,98911.73
2022-09-13T04:22:08.077Z,98910.21
2022-09-13T04:22:40.056Z,98908.64
2022-09-13T04:23:11.789Z,98908.29
2022-09-13T04:23:43.674Z,98908.72
2022-09-13T04:24:16.595Z,98911.65
2022-09-13T04:24:48.206Z,98911.16
2022-09-13T04:25:22.046Z,98910.06
2022-09-13T04:25:54.444Z,98910.96
2022-09-13T04:26:26.252Z,98908.48
2022-09-13T04:26:58.538Z,98912.50
2022-09-13T04:27:30.361Z,98914.72
2022-09-13T04:28:02.197Z,98910.35
2022-09-13T04:28:34.060Z,98910.18
2022-09-13T04:29:05.840Z,98908.61
2022-09-13T04:29:37.749Z,98909.36
2022-09-13T04:30:10.877Z,98907.70
2022-09-13T04:30:46.559Z,98907.26
2022-09-13T04:31:18.453Z,98909.00
2022-09-13T04:31:52.080Z,98908.80
2022-09-13T04:32:24.109Z,98903.66
2022-09-13T04:32:59.583Z,98905.33
2022-09-13T04:33:31.859Z,98907.13
2022-09-13T04:34:05.266Z,98908.14
2022-09-13T04:34:37.031Z,98908.51
2022-09-13T04:35:09.028Z,98910.13
2022-09-13T04:35:40.699Z,98909.68
2022-09-13T04:36:12.488Z,98911.70
2022-09-13T04:36:45.742Z,98909.96
2022-09-13T04:37:17.431Z,98910.73
2022-09-13T04:37:49.356Z,98911.06
2022-09-13T04:38:21.043Z,98908.39
2022-09-13T04:38:52.792Z,98909.60
2022-09-13T04:39:24.532Z,98909.33
2022-09-13T04:39:56.827Z,98907.91
2022-09-13T04:40:29.029Z,98909.58
2022-09-13T04:41:00.856Z,98911.02
2022-09-13T04:41:34.077Z,98909.30
2022-09-13T04:42:06.982Z,98907.54
2022-09-13T04:42:38.913Z,98905.31
2022-09-13T04:43:10.836Z,98908.44
2022-09-13T04:43:43.212Z,98907.46
2022-09-13T04:44:16.841Z,98907.41
2022-09-13T04:44:49.722Z,98903.42
2022-09-13T04:45:21.751Z,98907.04
2022-09-13T04:45:53.517Z,98904.20
2022-09-13T04:46:25.269Z,98905.38
2022-09-13T04:46:56.972Z,98904.73
2022-09-13T04:47:28.713Z,98903.20
2022-09-13T04:48:00.519Z,98901.82
2022-09-13T04:48:32.254Z,98904.45
2022-09-13T04:49:04.472Z,98901.92
2022-09-13T04:49:36.276Z,98904.84
2022-09-13T04:50:09.510Z,98907.79
2022-09-13T04:50:41.844Z,98906.46
2022-09-13T04:51:14.476Z,98903.99
2022-09-13T04:51:46.561Z,98905.52
2022-09-13T04:52:18.398Z,98904.23
2022-09-13T04:52:53.732Z,98902.77
2022-09-13T04:53:25.680Z,98907.95
2022-09-13T04:53:57.619Z,98903.47
2022-09-13T04:54:29.494Z,98904.40
2022-09-13T04:55:02.629Z,98905.59
2022-09-13T04:55:36.344Z,98901.92
2022-09-13T04:56:09.116Z,98905.44
2022-09-13T04:56:40.934Z,98903.05
2022-09-13T04:57:14.469Z,98904.39
2022-09-13T04:57:46.163Z,98905.09
2022-09-13T04:58:18.428Z,98904.49
2022-09-13T04:58:51.182Z,98909.16
2022-09-13T04:59:23.167Z,98909.44
2022-09-13T04:59:55.159Z,98911.02
2022-09-13T05:00:27.003Z,98912.27
2022-09-13T05:01:07.958Z,98913.33
2022-09-13T05:01:40.809Z,98915.20
2022-09-13T05:02:12.847Z,98914.40
2022-09-13T05:02:44.543Z,98912.01
2022-09-13T05:03:16.436Z,98910.98
2022-09-13T05:03:49.999Z,98908.66
2022-09-13T05:04:21.769Z,98910.81
2022-09-13T05:04:53.762Z,98911.59
2022-09-13T05:05:25.476Z,98912.35
2022-09-13T05:06:05.096Z,98912.38
2022-09-13T05:06:37.200Z,98911.13
2022-09-13T05:07:08.983Z,98908.48
2022-09-13T05:07:40.750Z,98912.02
2022-09-13T05:08:12.440Z,98907.89
2022-09-13T05:08:44.923Z,98908.05
2022-09-13T05:09:16.700Z,98909.44
2022-09-13T05:09:48.485Z,98908.86
2022-09-13T05:10:20.265Z,98910.59
2022-09-13T05:10:52.226Z,98909.63
2022-09-13T05:11:26.376Z,98910.91
2022-09-13T05:11:58.034Z,98910.83
2022-09-13T05:12:29.720Z,98909.49
2022-09-13T05:13:01.519Z,98904.86
2022-09-13T05:13:33.843Z,98906.76
2022-09-13T05:14:06.123Z,98906.61
2022-09-13T05:14:37.940Z,98907.52
2022-09-13T05:15:11.782Z,98905.65
2022-09-13T05:15:44.111Z,98903.46
2022-09-13T05:16:15.919Z,98907.23
2022-09-13T05:16:47.945Z,98902.20
2022-09-13T05:17:21.397Z,98900.91
2022-09-13T05:17:53.275Z,98901.87
2022-09-13T05:18:29.564Z,98901.80
2022-09-13T05:19:01.969Z,98898.89
2022-09-13T05:19:34.797Z,98899.88
2022-09-13T05:20:07.259Z,98899.92
2022-09-13T05:20:38.968Z,98902.08
2022-09-13T05:21:10.710Z,98900.29
2022-09-13T05:21:42.596Z,98900.61
2022-09-13T05:22:14.434Z,98899.67
2022-09-13T05:22:46.209Z,98900.77
2022-09-13T05:23:18.079Z,98901.48
2022-09-13T05:23:51.190Z,98899.69
2022-09-13T05:24:23.084Z,98902.36
2022-09-13T05:24:55.388Z,98901.39
2022-09-13T05:25:27.168Z,98901.36
2022-09-13T05:26:05.457Z,98901.66
2022-09-13T05:26:37.524Z,98900.48
2022-09-13T05:27:10.786Z,98903.52
2022-09-13T05:27:45.316Z,98904.00
2022-09-13T05:28:16.978Z,98902.86
2022-09-13T05:28:49.611Z,98904.11
2022-09-13T05:29:21.494Z,98901.08
2022-09-13T05:29:53.311Z,98901.59
2022-09-13T05:30:25.030Z,98899.05
2022-09-13T05:31:06.055Z,98902.55
2022-09-13T05:31:40.412Z,98899.80
2022-09-13T05:32:12.236Z,98901.75
2022-09-13T05:32:44.089Z,98899.63
2022-09-13T05:33:15.783Z,98900.10
2022-09-13T05:33:52.368Z,98898.12
2022-09-13T05:34:24.158Z,98897.31
2022-09-13T05:34:55.913Z,98898.05
2022-09-13T05:35:27.762Z,98901.14
2022-09-13T05:35:59.690Z,98901.61
2022-09-13T05:36:32.748Z,98901.07
2022-09-13T05:37:04.521Z,98898.92
2022-09-13T05:37:36.509Z,98901.33
2022-09-13T05:38:08.254Z,98901.13
2022-09-13T05:38:40.088Z,98900.89
2022-09-13T05:40:00.288Z,98899.13
2022-09-13T05:40:13.486Z,98897.73
2022-09-13T05:40:46.245Z,98897.54
2022-09-13T05:41:18.068Z,98900.14
2022-09-13T05:41:49.867Z,98898.76
2022-09-13T05:42:21.881Z,98898.03
2022-09-13T05:42:53.639Z,98898.31
2022-09-13T05:43:28.024Z,98897.10
2022-09-13T05:44:07.957Z,98896.98
2022-09-13T05:44:43.890Z,98900.04
2022-09-13T05:45:15.779Z,98900.11
2022-09-13T05:45:47.879Z,98896.31
2022-09-13T05:46:21.299Z,98896.67
2022-09-13T05:46:53.213Z,98896.16
2022-09-13T05:47:24.939Z,98899.40
2022-09-13T05:47:56.704Z,98895.55
2022-09-13T05:48:29.660Z,98896.67
2022-09-13T05:49:01.389Z,98894.80
2022-09-13T05:49:33.307Z,98894.88
2022-09-13T05:50:10.778Z,98895.73
2022-09-13T05:50:57.871Z,98896.39
2022-09-13T05:51:30.808Z,98893.30
2022-09-13T05:52:02.423Z,98896.20
2022-09-13T05:52:34.116Z,98897.13
2022-09-13T05:53:06.150Z,98896.27
2022-09-13T05:53:39.640Z,98894.65
2022-09-13T05:54:12.266Z,98896.34
2022-09-13T05:54:44.042Z,98897.18
2022-09-13T05:55:15.924Z,98894.98
2022-09-13T05:55:47.917Z,98896.23
2022-09-13T05:56:28.769Z,98897.77
2022-09-13T05:57:00.600Z,98894.95
2022-09-13T05:57:32.359Z,98896.73
2022-09-13T05:58:04.190Z,98898.25
2022-09-13T05:58:41.047Z,98898.27
2022-09-13T05:59:14.385Z,98895.04
2022-09-13T05:59:47.594Z,98897.56
2022-09-13T06:00:19.637Z,98900.80
2022-09-13T06:00:56.140Z,98895.38
2022-09-13T06:01:28.879Z,98898.13
2022-09-13T06:02:00.738Z,98897.08
2022-09-13T06:02:32.633Z,98896.56
2022-09-13T06:03:04.605Z,98900.62
2022-09-13T06:03:36.694Z,98901.31
2022-09-13T06:04:08.422Z,98896.17
2022-09-13T06:04:40.395Z,98898.52
2022-09-13T06:05:12.596Z,98897.22
2022-09-13T06:05:44.225Z,98899.29
2022-09-13T06:06:17.078Z,98895.48
2022-09-13T06:06:48.895Z,98896.16
2022-09-13T06:07:20.636Z,98896.56
2022-09-13T06:07:52.318Z,98895.96
2022-09-13T06:08:25.462Z,98896.24
2022-09-13T06:08:57.823Z,98890.73
2022-09-13T06:09:29.719Z,98895.84
2022-09-13T06:10:02.062Z,98892.08
2022-09-13T06:10:33.847Z,98895.02
2022-09-13T06:11:11.319Z,98892.65
2022-09-13T06:11:43.140Z,98889.96
2022-09-13T06:12:14.968Z,98891.58
2022-09-13T06:12:47.114Z,98892.34
2022-09-13T06:13:18.859Z,98892.14
2022-09-13T06:13:50.855Z,98894.70
2022-09-13T06:14:22.894Z,98893.89
2022-09-13T06:14:54.688Z,98892.55
2022-09-13T06:15:26.384Z,98892.13
2022-09-13T06:16:00.381Z,98892.63
2022-09-13T06:16:32.217Z,98890.62
2022-09-13T06:17:04.155Z,98892.15
2022-09-13T06:17:35.951Z,98893.44
2022-09-13T06:18:07.642Z,98892.86
2022-09-13T06:18:40.419Z,98892.34
2022-09-13T06:19:12.150Z,98893.13
2022-09-13T06:19:44.106Z,98892.67
2022-09-13T06:20:15.950Z,98892.38
2022-09-13T06:20:48.493Z,98894.38
2022-09-13T06:21:25.905Z,98894.70
2022-09-13T06:21:59.006Z,98897.27
2022-09-13T06:22:32.893Z,98892.63
2022-09-13T06:23:04.658Z,98896.41
2022-09-13T06:23:37.218Z,98896.27
2022-09-13T06:24:09.430Z,98897.11
2022-09-13T06:24:41.224Z,98892.68
2022-09-13T06:25:13.130Z,98897.64
2022-09-13T06:25:45.011Z,98892.46
2022-09-13T06:26:19.896Z,98894.92
2022-09-13T06:26:52.064Z,98894.77
2022-09-13T06:27:23.740Z,98896.53
2022-09-13T06:27:55.639Z,98897.33
2022-09-13T06:28:27.756Z,98896.23
2022-09-13T06:28:59.936Z,98896.73
2022-09-13T06:29:32.126Z,98896.92
2022-09-13T06:30:05.016Z,98898.72
2022-09-13T06:30:36.847Z,98896.92
2022-09-13T06:31:11.686Z,98895.70
2022-09-13T06:31:44.896Z,98897.13
2022-09-13T06:32:16.891Z,98896.60
2022-09-13T06:32:48.593Z,98896.80
2022-09-13T06:33:20.493Z,98899.34
2022-09-13T06:33:58.013Z,98897.98
2022-09-13T06:34:31.494Z,98899.60
2022-09-13T06:35:03.785Z,98898.84
2022-09-13T06:35:36.693Z,98900.33
2022-09-13T06:36:19.527Z,98896.88
2022-09-13T06:36:51.437Z,98898.39
2022-09-13T06:37:23.303Z,98897.61
2022-09-13T06:37:57.061Z,98900.01
2022-09-13T06:38:29.235Z,98899.40
2022-09-13T06:39:01.717Z,98901.59
2022-09-13T06:39:34.378Z,98898.81
2022-09-13T06:40:07.088Z,98899.27
2022-09-13T06:40:39.046Z,98895.52
2022-09-13T06:41:13.605Z,98899.39
2022-09-13T06:41:45.851Z,98896.55
2022-09-13T06:42:18.282Z,98899.21
2022-09-13T06:42:50.339Z,98898.98
2022-09-13T06:43:21.932Z,98898.73
2022-09-13T06:43:56.887Z,98901.67
2022-09-13T06:44:28.741Z,98898.96
2022-09-13T06:45:00.377Z,98898.38
2022-09-13T06:45:32.049Z,98898.48
2022-09-13T06:46:09.036Z,98894.96
2022-09-13T06:46:41.213Z,98897.75
2022-09-13T06:47:13.216Z,98898.66
2022-09-13T06:47:45.035Z,98897.56
2022-09-13T06:48:18.035Z,98898.80
2022-09-13T06:48:50.074Z,98898.88
2022-09-13T06:49:22.052Z,98897.44
2022-09-13T06:49:53.850Z,98895.17
2022-09-13T06:50:25.659Z,98901.54
2022-09-13T06:50:59.868Z,98899.18
2022-09-13T06:51:32.875Z,98896.50
2022-09-13T06:52:05.182Z,98896.02
2022-09-13T06:52:37.051Z,98897.52
2022-09-13T06:53:08.924Z,98901.66
2022-09-13T06:53:41.859Z,98903.00
2022-09-13T06:54:13.749Z,98902.08
2022-09-13T06:54:45.609Z,98902.35
2022-09-13T06:55:17.316Z,98904.63
2022-09-13T06:55:49.226Z,98903.29
2022-09-13T06:56:23.863Z,98903.61
2022-09-13T06:56:55.657Z,98905.14
2022-09-13T06:57:30.385Z,98905.56
2022-09-13T06:58:02.059Z,98904.38
2022-09-13T06:58:35.807Z,98906.98
2022-09-13T06:59:10.052Z,98905.32
2022-09-13T06:59:41.884Z,98904.13
2022-09-13T07:00:14.350Z,98903.86
2022-09-13T07:00:46.121Z,98904.31
2022-09-13T07:01:23.988Z,98904.10
2022-09-13T07:01:56.715Z,98901.86
2022-09-13T07:02:28.658Z,98903.33
2022-09-13T07:03:00.335Z,98904.53
2022-09-13T07:03:32.086Z,98901.68
2022-09-13T07:04:05.569Z,98904.48
2022-09-13T07:04:37.331Z,98901.55
2022-09-13T07:05:10.453Z,98898.70
2022-09-13T07:05:42.360Z,98895.86
2022-09-13T07:06:21.556Z,98897.83
2022-09-13T07:06:54.276Z,98896.34
2022-09-13T07:07:26.168Z,98897.59
2022-09-13T07:07:57.839Z,98897.48
2022-09-13T07:08:31.192Z,98895.95
2022-09-13T07:09:05.761Z,98897.04
2022-09-13T07:09:37.514Z,98897.78